createdAt,value
2022-08-27T00:06:14.182Z,22.36
2022-08-27T00:13:16.182Z,22.38
2022-08-27T00:20:19.797Z,22.34
2022-08-27T00:27:21.566Z,22.34
2022-08-27T00:34:23.973Z,22.34
2022-08-27T00:41:25.675Z,22.34
2022-08-27T00:48:28.847Z,22.40
2022-08-27T00:55:39.488Z,22.40
2022-08-27T01:02:42.178Z,22.39
2022-08-27T01:09:43.898Z,22.36
2022-08-27T01:16:50.733Z,22.41
2022-08-27T01:24:09.764Z,22.42
2022-08-27T01:31:11.911Z,22.41
2022-08-27T01:38:30.001Z,22.40
2022-08-27T01:45:36.992Z,22.43
2022-08-27T01:52:38.849Z,22.40
2022-08-27T01:59:40.644Z,22.40
2022-08-27T02:06:42.379Z,22.38
2022-08-27T02:13:44.092Z,22.38
2022-08-27T02:20:46.362Z,22.38
2022-08-27T02:27:48.824Z,22.40
2022-08-27T02:34:50.643Z,22.42
2022-08-27T02:41:52.316Z,22.42
2022-08-27T02:48:54.001Z,22.41
2022-08-27T02:55:55.686Z,22.42
2022-08-27T03:02:57.682Z,22.44
2022-08-27T03:09:59.512Z,22.48
2022-08-27T03:17:21.824Z,22.51
2022-08-27T03:24:23.587Z,22.48
2022-08-27T03:31:29.306Z,22.49
2022-08-27T03:45:32.537Z,22.51
2022-08-27T03:52:54.201Z,22.48
2022-08-27T03:59:57.022Z,22.46
2022-08-27T04:06:59.102Z,22.41
2022-08-27T04:14:02.784Z,22.36
2022-08-27T04:21:11.479Z,22.35
2022-08-27T04:28:13.384Z,22.34
2022-08-27T04:35:15.136Z,22.28
2022-08-27T04:42:18.288Z,22.26
2022-08-27T04:49:19.991Z,22.24
2022-08-27T04:56:22.687Z,22.21
2022-08-27T05:03:24.561Z,22.24
2022-08-27T05:10:26.268Z,22.22
2022-08-27T05:17:31.338Z,22.19
2022-08-27T05:24:33.035Z,22.16
2022-08-27T05:31:34.833Z,22.19
2022-08-27T05:38:36.787Z,22.20
2022-08-27T05:45:48.685Z,22.24
2022-08-27T05:52:50.793Z,22.24
2022-08-27T06:00:15.771Z,22.29
2022-08-27T06:07:17.716Z,22.29
2022-08-27T06:14:19.482Z,22.28
2022-08-27T06:21:24.664Z,22.28
2022-08-27T06:28:31.378Z,22.31
2022-08-27T06:35:36.162Z,22.36
2022-08-27T06:42:38.136Z,22.41
2022-08-27T06:49:43.900Z,22.47
2022-08-27T06:56:49.602Z,22.48
2022-08-27T07:03:51.552Z,22.52
2022-08-27T07:10:57.295Z,22.56
2022-08-27T07:17:59.070Z,22.63
2022-08-27T07:25:02.824Z,22.63
2022-08-27T07:32:04.803Z,22.69
2022-08-27T07:39:06.880Z,22.72
2022-08-27T07:46:08.847Z,22.74
2022-08-27T07:53:10.666Z,22.82
2022-08-27T08:00:13.123Z,22.78
2022-08-27T08:07:14.840Z,22.82
2022-08-27T08:14:17.110Z,22.80
2022-08-27T08:21:18.901Z,22.67
2022-08-27T08:28:20.620Z,22.68
2022-08-27T08:35:24.348Z,22.76
2022-08-27T08:42:32.035Z,22.84
2022-08-27T08:49:42.477Z,22.89
2022-08-27T08:57:08.291Z,22.94
2022-08-27T09:04:11.334Z,22.92
2022-08-27T09:11:35.191Z,23.03
2022-08-27T09:18:38.485Z,23.19
2022-08-27T09:25:42.862Z,23.20
2022-08-27T09:32:44.551Z,23.36
2022-08-27T09:39:49.302Z,23.50
2022-08-27T09:46:55.340Z,23.67
2022-08-27T09:53:57.611Z,23.81
2022-08-27T10:01:15.974Z,24.08
2022-08-27T10:08:25.269Z,24.23
2022-08-27T10:15:29.599Z,24.27
2022-08-27T10:22:52.057Z,24.17
2022-08-27T10:30:07.524Z,24.27
2022-08-27T10:37:36.642Z,24.49
2022-08-27T10:44:55.825Z,24.42
2022-08-27T10:52:05.308Z,24.52
2022-08-27T10:59:32.217Z,24.66
2022-08-27T11:06:37.012Z,24.54
2022-08-27T11:13:42.631Z,24.51
2022-08-27T11:20:53.838Z,24.54
2022-08-27T11:27:55.562Z,24.63
2022-08-27T11:35:03.067Z,24.66
2022-08-27T11:42:39.011Z,24.77
2022-08-27T11:49:49.195Z,24.88
2022-08-27T11:56:52.101Z,25.10
2022-08-27T12:04:02.248Z,25.61
2022-08-27T12:11:08.412Z,26.39
2022-08-27T12:18:38.548Z,26.28
2022-08-27T12:25:40.212Z,26.06
2022-08-27T12:32:46.406Z,25.96
2022-08-27T12:39:49.476Z,26.65
2022-08-27T12:47:17.003Z,28.21
2022-08-27T12:54:36.847Z,27.96
2022-08-27T13:02:00.853Z,27.63
2022-08-27T13:09:06.875Z,27.92
2022-08-27T13:16:08.644Z,28.25
2022-08-27T13:23:20.490Z,27.63
2022-08-27T13:30:35.809Z,27.35
2022-08-27T13:37:46.039Z,28.53
2022-08-27T13:44:48.204Z,29.93
2022-08-27T13:51:50.793Z,31.31
2022-08-27T13:58:52.522Z,31.89
2022-08-27T14:05:54.392Z,31.72
2022-08-27T14:12:58.469Z,31.85
2022-08-27T14:20:01.050Z,31.85
2022-08-27T14:27:06.329Z,31.68
2022-08-27T14:34:08.393Z,31.30
2022-08-27T14:41:10.400Z,30.25
2022-08-27T14:48:18.685Z,30.03
2022-08-27T14:55:21.099Z,29.65
2022-08-27T15:02:23.639Z,29.15
2022-08-27T15:09:25.352Z,28.76
2022-08-27T15:16:35.071Z,28.28
2022-08-27T15:23:37.241Z,27.96
2022-08-27T15:30:38.978Z,27.70
2022-08-27T15:37:41.500Z,27.43
2022-08-27T15:44:48.649Z,27.17
2022-08-27T15:51:52.039Z,26.88
2022-08-27T15:58:53.991Z,26.81
2022-08-27T16:05:55.591Z,26.61
2022-08-27T16:12:57.269Z,26.34
2022-08-27T16:19:58.997Z,26.13
2022-08-27T16:27:00.775Z,25.97
2022-08-27T16:34:02.470Z,25.87
2022-08-27T16:41:05.023Z,25.67
2022-08-27T16:48:25.227Z,25.62
2022-08-27T16:55:26.875Z,25.56
2022-08-27T17:02:30.987Z,25.30
2022-08-27T17:09:34.817Z,25.11
2022-08-27T17:16:36.581Z,25.00
2022-08-27T17:23:39.979Z,24.88
2022-08-27T17:30:41.677Z,24.91
2022-08-27T17:37:43.352Z,24.71
2022-08-27T17:44:44.998Z,24.50
2022-08-27T17:51:48.342Z,24.45
2022-08-27T17:58:52.398Z,24.47
2022-08-27T18:05:54.391Z,24.48
2022-08-27T18:12:56.067Z,24.33
2022-08-27T18:19:57.693Z,24.33
2022-08-27T18:26:59.352Z,24.39
2022-08-27T18:34:01.206Z,24.29
2022-08-27T18:41:03.198Z,24.30
2022-08-27T18:48:11.502Z,24.26
2022-08-27T18:55:14.486Z,24.24
2022-08-27T19:02:17.939Z,24.05
2022-08-27T19:09:20.907Z,23.98
2022-08-27T19:16:29.443Z,23.83
2022-08-27T19:23:31.127Z,23.69
2022-08-27T19:30:32.836Z,23.72
2022-08-27T19:37:35.500Z,23.71
2022-08-27T19:44:37.239Z,23.75
2022-08-27T19:51:38.839Z,23.69
2022-08-27T19:58:43.245Z,23.65
2022-08-27T20:05:45.565Z,23.66
2022-08-27T20:12:47.232Z,23.52
2022-08-27T20:19:49.582Z,23.32
2022-08-27T20:26:52.046Z,23.33
2022-08-27T20:33:54.184Z,23.29
2022-08-27T20:40:55.844Z,23.20
2022-08-27T20:48:00.823Z,23.20
2022-08-27T20:55:06.494Z,23.23
2022-08-27T21:02:10.907Z,23.14
2022-08-27T21:09:12.672Z,23.11
2022-08-27T21:16:14.344Z,23.04
2022-08-27T21:23:16.063Z,23.02
2022-08-27T21:30:18.216Z,22.95
2022-08-27T21:37:20.152Z,22.91
2022-08-27T21:44:22.517Z,22.88
2022-08-27T21:51:24.797Z,22.87
2022-08-27T21:58:26.871Z,22.86
2022-08-27T22:05:28.624Z,22.88
2022-08-27T22:12:30.251Z,22.85
2022-08-27T22:19:31.845Z,22.69
2022-08-27T22:26:33.430Z,22.55
2022-08-27T22:33:35.057Z,22.45
2022-08-27T22:40:36.720Z,22.36
2022-08-27T22:47:38.662Z,22.26
2022-08-27T22:54:40.275Z,22.18
2022-08-27T23:01:41.895Z,22.08
2022-08-27T23:08:43.501Z,22.08
2022-08-27T23:15:45.165Z,22.01
2022-08-27T23:22:46.791Z,21.96
2022-08-27T23:29:48.987Z,21.78
2022-08-27T23:36:50.898Z,21.68
2022-08-27T23:43:53.865Z,21.72
2022-08-27T23:50:55.463Z,21.74
2022-08-27T23:58:00.784Z,21.72
